source: subversion/applications/editors/osm-editor/solent_090405_edited_osm.gpx @ 30892

Last change on this file since 30892 was 664, checked in by nick, 14 years ago

Changed save/load to always 'OSM' mode; changed example GPX files

File size: 50.6 KB
Line 
1<!-- This data is copyright Nick Whitelegg and licenced under the
2     Creative Commons Licence (Attribution/ShareAlike) v2.0. -->
3<gpx version="1.0" creator="Hogweed Software Freemap::Components class" xmlns="http://www.topografix.com/GPX/1/0">
4<wpt lat="50.9161" lon="-1.39608">
5<name>Bevois/Mt Pleasant</name>
6<type>waypoint</type>
7</wpt>
8<wpt lat="50.912" lon="-1.38778">
9<name>Northam/Princes St</name>
10<type>waypoint</type>
11</wpt>
12<wpt lat="50.9087" lon="-1.38693">
13<name>Millbank/Belvedere</name>
14<type>waypoint</type>
15</wpt>
16<wpt lat="50.9019" lon="-1.39102">
17<name>Marine Parade/Albert Rd N</name>
18<type>waypoint</type>
19</wpt>
20<wpt lat="50.898" lon="-1.37922">
21<name>Woolston Crossroads</name>
22<type>waypoint</type>
23</wpt>
24<wpt lat="50.89" lon="-1.38292">
25<name>Start of cycle path</name>
26<type>waypoint</type>
27</wpt>
28<wpt lat="50.8865" lon="-1.37436">
29<name>007</name>
30<type>car park</type>
31</wpt>
32<wpt lat="50.8863" lon="-1.37365">
33<name>End of cycle path</name>
34<type>waypoint</type>
35</wpt>
36<wpt lat="50.8768" lon="-1.35702">
37<name>Abbey Hill/Victoria Rd</name>
38<type>waypoint</type>
39</wpt>
40<wpt lat="50.8699" lon="-1.35105">
41<name>010</name>
42<type>waypoint</type>
43</wpt>
44<wpt lat="50.8602" lon="-1.33591">
45<name>011</name>
46<type>car park</type>
47</wpt>
48<wpt lat="50.8595" lon="-1.33503">
49<name>012</name>
50<type>car park</type>
51</wpt>
52<wpt lat="50.8505" lon="-1.31513">
53<name>013</name>
54<type>car park</type>
55</wpt>
56<wpt lat="50.857" lon="-1.31408">
57<name>014</name>
58<type>waypoint</type>
59</wpt>
60<wpt lat="50.8709" lon="-1.32818">
61<name>015</name>
62<type>waypoint</type>
63</wpt>
64<wpt lat="50.8802" lon="-1.3646">
65<name>Soton/Eastleigh Boundary</name>
66<type>waypoint</type>
67</wpt>
68<wpt lat="50.853" lon="-1.31543">
69<name>BOG</name>
70<type>caution</type>
71</wpt>
72<wpt lat="50.9058" lon="-1.38946">
73<name>Southampton Football Club</name>
74<type>amenity</type>
75</wpt>
76<wpt lat="50.8713" lon="-1.32869">
77<name>Hamble Station</name>
78<type>station</type>
79</wpt>
80<wpt lat="50.8566" lon="-1.31415">
81<name>Hamble Common</name>
82<type>car park</type>
83</wpt>
84<wpt lat="50.8589" lon="-1.31481">
85<name>Hamble</name>
86<type>village</type>
87</wpt>
88<wpt lat="50.8789" lon="-1.35781">
89<name>Netley Abbey</name>
90<type>waypoint</type>
91</wpt>
92<wpt lat="50.8729" lon="-1.35321">
93<name>Netley</name>
94<type>village</type>
95</wpt>
96<wpt lat="50.8549" lon="-1.32578">
97<name>Hamble Oil Terminal</name>
98<type>waypoint</type>
99</wpt>
100<wpt lat="50.8704" lon="-1.35112">
101<name>POND</name>
102<type>waypoint</type>
103</wpt>
104<wpt lat="50.9143" lon="-1.39161">
105<name>Mt Pleasant Railway Crossing</name>
106<type>waypoint</type>
107</wpt>
108<wpt lat="50.8665" lon="-1.34177">
109<name>Royal Victoria Country Park</name>
110<type>country park</type>
111</wpt>
112<wpt lat="50.883" lon="-1.36781">
113<name>Weston Shore</name>
114<type>car park</type>
115</wpt>
116<wpt lat="50.8827" lon="-1.36694">
117<name>Westwood</name>
118<type>car park</type>
119</wpt>
120<trk>
121<number>0</number>
122<extensions>
123</extensions>
124<trkseg>
125<trkpt lat="50.917" lon="-1.39683">
126<time>2005-04-09T15:34:39Z</time>
127</trkpt>
128<trkpt lat="50.9169" lon="-1.39677">
129<time>2005-04-09T15:34:56Z</time>
130</trkpt>
131<trkpt lat="50.9167" lon="-1.39651">
132<time>2005-04-09T15:35:12Z</time>
133</trkpt>
134<trkpt lat="50.9164" lon="-1.39614">
135<time>2005-04-09T15:35:35Z</time>
136</trkpt>
137<trkpt lat="50.9164" lon="-1.39612">
138<time>2005-04-09T15:35:38Z</time>
139</trkpt>
140<trkpt lat="50.9163" lon="-1.39612">
141<time>2005-04-09T15:35:59Z</time>
142</trkpt>
143<trkpt lat="50.9163" lon="-1.39617">
144<time>2005-04-09T15:36:09Z</time>
145</trkpt>
146<trkpt lat="50.9162" lon="-1.39632">
147<time>2005-04-09T15:36:26Z</time>
148</trkpt>
149<trkpt lat="50.9162" lon="-1.39632">
150<time>2005-04-09T15:36:46Z</time>
151</trkpt>
152<trkpt lat="50.9162" lon="-1.39627">
153<time>2005-04-09T15:36:56Z</time>
154</trkpt>
155<trkpt lat="50.9162" lon="-1.39602">
156<time>2005-04-09T15:37:05Z</time>
157</trkpt>
158<trkpt lat="50.9161" lon="-1.39606">
159<time>2005-04-09T15:37:16Z</time>
160</trkpt>
161<trkpt lat="50.9161" lon="-1.39608">
162<time>2005-04-09T15:37:27Z</time>
163</trkpt>
164<trkpt lat="50.9157" lon="-1.39578">
165<time>2005-04-09T15:37:50Z</time>
166</trkpt>
167<trkpt lat="50.9154" lon="-1.39539">
168<time>2005-04-09T15:38:13Z</time>
169</trkpt>
170<trkpt lat="50.9151" lon="-1.3949">
171<time>2005-04-09T15:38:36Z</time>
172</trkpt>
173<trkpt lat="50.9149" lon="-1.39432">
174<time>2005-04-09T15:38:59Z</time>
175</trkpt>
176<trkpt lat="50.9148" lon="-1.39355">
177<time>2005-04-09T15:39:27Z</time>
178</trkpt>
179<trkpt lat="50.9147" lon="-1.39297">
180<time>2005-04-09T15:39:48Z</time>
181</trkpt>
182<trkpt lat="50.9145" lon="-1.39237">
183<time>2005-04-09T15:40:13Z</time>
184</trkpt>
185<trkpt lat="50.9144" lon="-1.39183">
186<time>2005-04-09T15:40:37Z</time>
187</trkpt>
188<trkpt lat="50.9144" lon="-1.39175">
189<time>2005-04-09T15:40:42Z</time>
190</trkpt>
191<trkpt lat="50.9143" lon="-1.39155">
192<time>2005-04-09T15:40:58Z</time>
193</trkpt>
194<trkpt lat="50.9142" lon="-1.39134">
195<time>2005-04-09T15:41:14Z</time>
196</trkpt>
197<trkpt lat="50.914" lon="-1.39112">
198<time>2005-04-09T15:41:36Z</time>
199</trkpt>
200<trkpt lat="50.9139" lon="-1.39091">
201<time>2005-04-09T15:41:54Z</time>
202</trkpt>
203<trkpt lat="50.9138" lon="-1.39037">
204<time>2005-04-09T15:42:17Z</time>
205</trkpt>
206<trkpt lat="50.9137" lon="-1.39014">
207<time>2005-04-09T15:42:27Z</time>
208</trkpt>
209<trkpt lat="50.9134" lon="-1.39016">
210<time>2005-04-09T15:42:46Z</time>
211</trkpt>
212<trkpt lat="50.913" lon="-1.39022">
213<time>2005-04-09T15:43:11Z</time>
214</trkpt>
215<trkpt lat="50.9126" lon="-1.39024">
216<time>2005-04-09T15:43:36Z</time>
217</trkpt>
218<trkpt lat="50.9124" lon="-1.39026">
219<time>2005-04-09T15:43:51Z</time>
220</trkpt>
221<trkpt lat="50.9123" lon="-1.39022">
222<time>2005-04-09T15:44:01Z</time>
223</trkpt>
224<trkpt lat="50.9122" lon="-1.38971">
225<time>2005-04-09T15:44:21Z</time>
226</trkpt>
227<trkpt lat="50.9122" lon="-1.38906">
228<time>2005-04-09T15:44:44Z</time>
229</trkpt>
230<trkpt lat="50.9121" lon="-1.38853">
231<time>2005-04-09T15:45:04Z</time>
232</trkpt>
233<trkpt lat="50.9121" lon="-1.3885">
234<time>2005-04-09T15:45:06Z</time>
235</trkpt>
236<trkpt lat="50.9118" lon="-1.38825">
237<time>2005-04-09T15:47:02Z</time>
238</trkpt>
239<trkpt lat="50.9118" lon="-1.38816">
240<time>2005-04-09T15:47:32Z</time>
241</trkpt>
242<trkpt lat="50.9118" lon="-1.38803">
243<time>2005-04-09T15:47:47Z</time>
244</trkpt>
245<trkpt lat="50.9118" lon="-1.38805">
246<time>2005-04-09T15:47:51Z</time>
247</trkpt>
248<trkpt lat="50.9118" lon="-1.38793">
249<time>2005-04-09T15:47:56Z</time>
250</trkpt>
251<trkpt lat="50.912" lon="-1.38775">
252<time>2005-04-09T15:48:15Z</time>
253</trkpt>
254<trkpt lat="50.912" lon="-1.38771">
255<time>2005-04-09T15:48:18Z</time>
256</trkpt>
257<trkpt lat="50.9119" lon="-1.3872">
258<time>2005-04-09T15:48:37Z</time>
259</trkpt>
260<trkpt lat="50.9119" lon="-1.38666">
261<time>2005-04-09T15:48:58Z</time>
262</trkpt>
263<trkpt lat="50.9118" lon="-1.38599">
264<time>2005-04-09T15:49:24Z</time>
265</trkpt>
266<trkpt lat="50.9118" lon="-1.38546">
267<time>2005-04-09T15:49:44Z</time>
268</trkpt>
269<trkpt lat="50.9118" lon="-1.38479">
270<time>2005-04-09T15:50:09Z</time>
271</trkpt>
272<trkpt lat="50.9117" lon="-1.38417">
273<time>2005-04-09T15:50:34Z</time>
274</trkpt>
275<trkpt lat="50.9115" lon="-1.38402">
276<time>2005-04-09T15:50:51Z</time>
277</trkpt>
278<trkpt lat="50.9111" lon="-1.3843">
279<time>2005-04-09T15:51:13Z</time>
280</trkpt>
281<trkpt lat="50.9107" lon="-1.38477">
282<time>2005-04-09T15:51:41Z</time>
283</trkpt>
284<trkpt lat="50.9104" lon="-1.38511">
285<time>2005-04-09T15:52:04Z</time>
286</trkpt>
287<trkpt lat="50.9101" lon="-1.38552">
288<time>2005-04-09T15:52:30Z</time>
289</trkpt>
290<trkpt lat="50.9097" lon="-1.38595">
291<time>2005-04-09T15:52:55Z</time>
292</trkpt>
293<trkpt lat="50.9094" lon="-1.38634">
294<time>2005-04-09T15:53:20Z</time>
295</trkpt>
296<trkpt lat="50.9089" lon="-1.38683">
297<time>2005-04-09T15:53:50Z</time>
298</trkpt>
299<trkpt lat="50.9088" lon="-1.38694">
300<time>2005-04-09T15:53:59Z</time>
301</trkpt>
302<trkpt lat="50.9087" lon="-1.38694">
303<time>2005-04-09T15:54:14Z</time>
304</trkpt>
305<trkpt lat="50.9086" lon="-1.38707">
306<time>2005-04-09T15:54:38Z</time>
307</trkpt>
308<trkpt lat="50.9078" lon="-1.38795">
309<time>2005-04-09T15:55:18Z</time>
310</trkpt>
311<trkpt lat="50.9077" lon="-1.3879">
312<time>2005-04-09T15:55:26Z</time>
313</trkpt>
314<trkpt lat="50.9073" lon="-1.38833">
315<time>2005-04-09T15:55:54Z</time>
316</trkpt>
317<trkpt lat="50.907" lon="-1.38855">
318<time>2005-04-09T15:56:17Z</time>
319</trkpt>
320<trkpt lat="50.9066" lon="-1.3887">
321<time>2005-04-09T15:56:38Z</time>
322</trkpt>
323<trkpt lat="50.9063" lon="-1.38889">
324<time>2005-04-09T15:57:00Z</time>
325</trkpt>
326<trkpt lat="50.906" lon="-1.38906">
327<time>2005-04-09T15:57:21Z</time>
328</trkpt>
329<trkpt lat="50.9059" lon="-1.38915">
330<time>2005-04-09T15:57:38Z</time>
331</trkpt>
332<trkpt lat="50.9059" lon="-1.38917">
333<time>2005-04-09T15:57:40Z</time>
334</trkpt>
335<trkpt lat="50.9059" lon="-1.38945">
336<time>2005-04-09T15:57:52Z</time>
337</trkpt>
338<trkpt lat="50.9057" lon="-1.38951">
339<time>2005-04-09T15:58:04Z</time>
340</trkpt>
341<trkpt lat="50.9055" lon="-1.3896">
342<time>2005-04-09T15:58:22Z</time>
343</trkpt>
344<trkpt lat="50.9052" lon="-1.38977">
345<time>2005-04-09T15:58:41Z</time>
346</trkpt>
347<trkpt lat="50.9048" lon="-1.39005">
348<time>2005-04-09T15:59:05Z</time>
349</trkpt>
350<trkpt lat="50.9045" lon="-1.39026">
351<time>2005-04-09T15:59:26Z</time>
352</trkpt>
353<trkpt lat="50.9041" lon="-1.39046">
354<time>2005-04-09T15:59:51Z</time>
355</trkpt>
356<trkpt lat="50.9036" lon="-1.39063">
357<time>2005-04-09T16:00:17Z</time>
358</trkpt>
359<trkpt lat="50.9032" lon="-1.39074">
360<time>2005-04-09T16:00:41Z</time>
361</trkpt>
362<trkpt lat="50.9028" lon="-1.39078">
363<time>2005-04-09T16:01:04Z</time>
364</trkpt>
365<trkpt lat="50.9024" lon="-1.39089">
366<time>2005-04-09T16:01:29Z</time>
367</trkpt>
368<trkpt lat="50.902" lon="-1.39099">
369<time>2005-04-09T16:01:54Z</time>
370</trkpt>
371<trkpt lat="50.9019" lon="-1.39102">
372<time>2005-04-09T16:02:11Z</time>
373</trkpt>
374<trkpt lat="50.9018" lon="-1.39102">
375<time>2005-04-09T16:02:23Z</time>
376</trkpt>
377<trkpt lat="50.9013" lon="-1.3911">
378<time>2005-04-09T16:02:48Z</time>
379</trkpt>
380<trkpt lat="50.901" lon="-1.39117">
381<time>2005-04-09T16:03:08Z</time>
382</trkpt>
383<trkpt lat="50.9008" lon="-1.39121">
384<time>2005-04-09T16:03:27Z</time>
385</trkpt>
386<trkpt lat="50.9004" lon="-1.39127">
387<time>2005-04-09T16:03:48Z</time>
388</trkpt>
389<trkpt lat="50.9001" lon="-1.39132">
390<time>2005-04-09T16:04:05Z</time>
391</trkpt>
392<trkpt lat="50.9001" lon="-1.39134">
393<time>2005-04-09T16:04:09Z</time>
394</trkpt>
395<trkpt lat="50.9" lon="-1.39134">
396<time>2005-04-09T16:04:16Z</time>
397</trkpt>
398<trkpt lat="50.8997" lon="-1.39127">
399<time>2005-04-09T16:04:31Z</time>
400</trkpt>
401<trkpt lat="50.8994" lon="-1.39134">
402<time>2005-04-09T16:04:54Z</time>
403</trkpt>
404<trkpt lat="50.899" lon="-1.39142">
405<time>2005-04-09T16:05:14Z</time>
406</trkpt>
407<trkpt lat="50.8988" lon="-1.39177">
408<time>2005-04-09T16:05:39Z</time>
409</trkpt>
410<trkpt lat="50.8987" lon="-1.39181">
411<time>2005-04-09T16:05:44Z</time>
412</trkpt>
413<trkpt lat="50.8986" lon="-1.39134">
414<time>2005-04-09T16:06:02Z</time>
415</trkpt>
416<trkpt lat="50.8986" lon="-1.39108">
417<time>2005-04-09T16:06:14Z</time>
418</trkpt>
419<trkpt lat="50.8987" lon="-1.39061">
420<time>2005-04-09T16:06:35Z</time>
421</trkpt>
422<trkpt lat="50.8988" lon="-1.39005">
423<time>2005-04-09T16:06:55Z</time>
424</trkpt>
425<trkpt lat="50.8987" lon="-1.38934">
426<time>2005-04-09T16:07:20Z</time>
427</trkpt>
428<trkpt lat="50.8988" lon="-1.38861">
429<time>2005-04-09T16:07:47Z</time>
430</trkpt>
431<trkpt lat="50.8988" lon="-1.38799">
432<time>2005-04-09T16:08:12Z</time>
433</trkpt>
434<trkpt lat="50.8988" lon="-1.38732">
435<time>2005-04-09T16:08:38Z</time>
436</trkpt>
437<trkpt lat="50.8988" lon="-1.38679">
438<time>2005-04-09T16:08:59Z</time>
439</trkpt>
440<trkpt lat="50.8988" lon="-1.38619">
441<time>2005-04-09T16:09:23Z</time>
442</trkpt>
443<trkpt lat="50.8988" lon="-1.38572">
444<time>2005-04-09T16:09:43Z</time>
445</trkpt>
446<trkpt lat="50.8988" lon="-1.38516">
447<time>2005-04-09T16:10:05Z</time>
448</trkpt>
449<trkpt lat="50.8988" lon="-1.3846">
450<time>2005-04-09T16:10:28Z</time>
451</trkpt>
452<trkpt lat="50.8988" lon="-1.38402">
453<time>2005-04-09T16:10:50Z</time>
454</trkpt>
455<trkpt lat="50.8988" lon="-1.38342">
456<time>2005-04-09T16:11:13Z</time>
457</trkpt>
458<trkpt lat="50.8988" lon="-1.38301">
459<time>2005-04-09T16:11:29Z</time>
460</trkpt>
461<trkpt lat="50.8988" lon="-1.38275">
462<time>2005-04-09T16:11:39Z</time>
463</trkpt>
464<trkpt lat="50.8988" lon="-1.3823">
465<time>2005-04-09T16:11:57Z</time>
466</trkpt>
467<trkpt lat="50.8988" lon="-1.38166">
468<time>2005-04-09T16:12:23Z</time>
469</trkpt>
470<trkpt lat="50.8988" lon="-1.38119">
471<time>2005-04-09T16:12:43Z</time>
472</trkpt>
473<trkpt lat="50.8989" lon="-1.38063">
474<time>2005-04-09T16:13:05Z</time>
475</trkpt>
476<trkpt lat="50.8989" lon="-1.38003">
477<time>2005-04-09T16:13:29Z</time>
478</trkpt>
479<trkpt lat="50.8989" lon="-1.37947">
480<time>2005-04-09T16:13:51Z</time>
481</trkpt>
482<trkpt lat="50.8988" lon="-1.37924">
483<time>2005-04-09T16:14:04Z</time>
484</trkpt>
485<trkpt lat="50.8988" lon="-1.37915">
486<time>2005-04-09T16:14:09Z</time>
487</trkpt>
488<trkpt lat="50.8987" lon="-1.37863">
489<time>2005-04-09T16:14:32Z</time>
490</trkpt>
491<trkpt lat="50.8987" lon="-1.37861">
492<time>2005-04-09T16:14:33Z</time>
493</trkpt>
494<trkpt lat="50.8986" lon="-1.37859">
495<time>2005-04-09T16:14:36Z</time>
496</trkpt>
497<trkpt lat="50.8986" lon="-1.37876">
498<time>2005-04-09T16:14:47Z</time>
499</trkpt>
500<trkpt lat="50.8985" lon="-1.37876">
501<time>2005-04-09T16:14:54Z</time>
502</trkpt>
503<trkpt lat="50.8985" lon="-1.37876">
504<time>2005-04-09T16:15:02Z</time>
505</trkpt>
506<trkpt lat="50.8982" lon="-1.379">
507<time>2005-04-09T16:15:21Z</time>
508</trkpt>
509<trkpt lat="50.8981" lon="-1.37917">
510<time>2005-04-09T16:15:34Z</time>
511</trkpt>
512<trkpt lat="50.8981" lon="-1.37921">
513<time>2005-04-09T16:15:52Z</time>
514</trkpt>
515<trkpt lat="50.898" lon="-1.37924">
516<time>2005-04-09T16:16:07Z</time>
517</trkpt>
518<trkpt lat="50.8977" lon="-1.37939">
519<time>2005-04-09T16:16:29Z</time>
520</trkpt>
521<trkpt lat="50.8974" lon="-1.37962">
522<time>2005-04-09T16:16:50Z</time>
523</trkpt>
524<trkpt lat="50.8972" lon="-1.37988">
525<time>2005-04-09T16:17:12Z</time>
526</trkpt>
527<trkpt lat="50.8968" lon="-1.38014">
528<time>2005-04-09T16:17:34Z</time>
529</trkpt>
530<trkpt lat="50.8966" lon="-1.38035">
531<time>2005-04-09T16:17:54Z</time>
532</trkpt>
533<trkpt lat="50.8963" lon="-1.38054">
534<time>2005-04-09T16:18:15Z</time>
535</trkpt>
536<trkpt lat="50.896" lon="-1.38057">
537<time>2005-04-09T16:18:33Z</time>
538</trkpt>
539<trkpt lat="50.8956" lon="-1.38052">
540<time>2005-04-09T16:18:56Z</time>
541</trkpt>
542<trkpt lat="50.8953" lon="-1.38044">
543<time>2005-04-09T16:19:20Z</time>
544</trkpt>
545<trkpt lat="50.895" lon="-1.38033">
546<time>2005-04-09T16:19:40Z</time>
547</trkpt>
548<trkpt lat="50.8949" lon="-1.38031">
549<time>2005-04-09T16:19:55Z</time>
550</trkpt>
551<trkpt lat="50.8949" lon="-1.38031">
552<time>2005-04-09T16:20:01Z</time>
553</trkpt>
554<trkpt lat="50.8949" lon="-1.38018">
555<time>2005-04-09T16:20:07Z</time>
556</trkpt>
557<trkpt lat="50.8945" lon="-1.38014">
558<time>2005-04-09T16:20:30Z</time>
559</trkpt>
560<trkpt lat="50.8943" lon="-1.38027">
561<time>2005-04-09T16:20:46Z</time>
562</trkpt>
563<trkpt lat="50.8941" lon="-1.38046">
564<time>2005-04-09T16:21:04Z</time>
565</trkpt>
566<trkpt lat="50.8939" lon="-1.38057">
567<time>2005-04-09T16:21:18Z</time>
568</trkpt>
569<trkpt lat="50.8937" lon="-1.38076">
570<time>2005-04-09T16:21:34Z</time>
571</trkpt>
572<trkpt lat="50.8934" lon="-1.38104">
573<time>2005-04-09T16:21:55Z</time>
574</trkpt>
575<trkpt lat="50.8931" lon="-1.38125">
576<time>2005-04-09T16:22:14Z</time>
577</trkpt>
578<trkpt lat="50.8928" lon="-1.38153">
579<time>2005-04-09T16:22:37Z</time>
580</trkpt>
581<trkpt lat="50.8924" lon="-1.3819">
582<time>2005-04-09T16:23:04Z</time>
583</trkpt>
584<trkpt lat="50.8921" lon="-1.3822">
585<time>2005-04-09T16:23:25Z</time>
586</trkpt>
587<trkpt lat="50.8918" lon="-1.38243">
588<time>2005-04-09T16:23:45Z</time>
589</trkpt>
590<trkpt lat="50.8916" lon="-1.3826">
591<time>2005-04-09T16:24:04Z</time>
592</trkpt>
593<trkpt lat="50.8912" lon="-1.38284">
594<time>2005-04-09T16:24:26Z</time>
595</trkpt>
596<trkpt lat="50.891" lon="-1.38303">
597<time>2005-04-09T16:24:45Z</time>
598</trkpt>
599<trkpt lat="50.8907" lon="-1.38303">
600<time>2005-04-09T16:25:03Z</time>
601</trkpt>
602<trkpt lat="50.8904" lon="-1.38299">
603<time>2005-04-09T16:25:23Z</time>
604</trkpt>
605<trkpt lat="50.8902" lon="-1.38305">
606<time>2005-04-09T16:25:41Z</time>
607</trkpt>
608</trkseg>
609</trk>
610<trk>
611<number>0</number>
612<extensions>
613<property key="foot" value="unofficial"/>
614<property key="horse" value="unofficial"/>
615<property key="bike" value="no"/>
616<property key="car" value="no"/>
617<property key="class" value="path"/>
618</extensions>
619<trkseg>
620<trkpt lat="50.89" lon="-1.38293">
621<time>2005-04-09T16:25:59Z</time>
622</trkpt>
623<trkpt lat="50.89" lon="-1.38293">
624<time>2005-04-09T16:26:10Z</time>
625</trkpt>
626<trkpt lat="50.8897" lon="-1.38282">
627<time>2005-04-09T16:26:28Z</time>
628</trkpt>
629<trkpt lat="50.8895" lon="-1.38267">
630<time>2005-04-09T16:26:48Z</time>
631</trkpt>
632<trkpt lat="50.8892" lon="-1.38239">
633<time>2005-04-09T16:27:10Z</time>
634</trkpt>
635<trkpt lat="50.8889" lon="-1.38205">
636<time>2005-04-09T16:27:32Z</time>
637</trkpt>
638<trkpt lat="50.8887" lon="-1.38162">
639<time>2005-04-09T16:27:55Z</time>
640</trkpt>
641<trkpt lat="50.8885" lon="-1.38117">
642<time>2005-04-09T16:28:17Z</time>
643</trkpt>
644<trkpt lat="50.8883" lon="-1.38072">
645<time>2005-04-09T16:28:40Z</time>
646</trkpt>
647<trkpt lat="50.8882" lon="-1.38027">
648<time>2005-04-09T16:29:02Z</time>
649</trkpt>
650<trkpt lat="50.888" lon="-1.37973">
651<time>2005-04-09T16:29:29Z</time>
652</trkpt>
653<trkpt lat="50.8877" lon="-1.37926">
654<time>2005-04-09T16:29:53Z</time>
655</trkpt>
656<trkpt lat="50.8876" lon="-1.37898">
657<time>2005-04-09T16:30:15Z</time>
658</trkpt>
659<trkpt lat="50.8876" lon="-1.37857">
660<time>2005-04-09T16:30:43Z</time>
661</trkpt>
662<trkpt lat="50.8875" lon="-1.37812">
663<time>2005-04-09T16:31:05Z</time>
664</trkpt>
665<trkpt lat="50.8874" lon="-1.37769">
666<time>2005-04-09T16:31:25Z</time>
667</trkpt>
668<trkpt lat="50.8873" lon="-1.37713">
669<time>2005-04-09T16:31:50Z</time>
670</trkpt>
671<trkpt lat="50.8872" lon="-1.37657">
672<time>2005-04-09T16:32:14Z</time>
673</trkpt>
674<trkpt lat="50.8871" lon="-1.37606">
675<time>2005-04-09T16:32:37Z</time>
676</trkpt>
677<trkpt lat="50.8869" lon="-1.37559">
678<time>2005-04-09T16:32:58Z</time>
679</trkpt>
680<trkpt lat="50.8868" lon="-1.37514">
681<time>2005-04-09T16:33:20Z</time>
682</trkpt>
683<trkpt lat="50.8867" lon="-1.37475">
684<time>2005-04-09T16:33:39Z</time>
685</trkpt>
686<trkpt lat="50.8865" lon="-1.37436">
687<time>2005-04-09T16:34:01Z</time>
688</trkpt>
689<trkpt lat="50.8865" lon="-1.37417">
690<time>2005-04-09T16:34:33Z</time>
691</trkpt>
692<trkpt lat="50.8863" lon="-1.37374">
693<time>2005-04-09T16:34:54Z</time>
694</trkpt>
695<trkpt lat="50.8863" lon="-1.37357">
696<time>2005-04-09T16:35:11Z</time>
697</trkpt>
698</trkseg>
699</trk>
700<trk>
701<number>0</number>
702<extensions>
703<property key="foot" value="yes"/>
704<property key="horse" value="yes"/>
705<property key="bike" value="yes"/>
706<property key="car" value="yes"/>
707<property key="class" value="minor"/>
708</extensions>
709<trkseg>
710<trkpt lat="50.8863" lon="-1.37357">
711<time>2005-04-09T16:35:11Z</time>
712</trkpt>
713<trkpt lat="50.8861" lon="-1.37306">
714<time>2005-04-09T16:35:35Z</time>
715</trkpt>
716<trkpt lat="50.8859" lon="-1.37245">
717<time>2005-04-09T16:36:02Z</time>
718</trkpt>
719<trkpt lat="50.8857" lon="-1.37192">
720<time>2005-04-09T16:36:27Z</time>
721</trkpt>
722<trkpt lat="50.8855" lon="-1.37138">
723<time>2005-04-09T16:36:53Z</time>
724</trkpt>
725<trkpt lat="50.8853" lon="-1.37089">
726<time>2005-04-09T16:37:17Z</time>
727</trkpt>
728<trkpt lat="50.8851" lon="-1.37039">
729<time>2005-04-09T16:37:41Z</time>
730</trkpt>
731<trkpt lat="50.8848" lon="-1.36988">
732<time>2005-04-09T16:38:07Z</time>
733</trkpt>
734<trkpt lat="50.8847" lon="-1.36958">
735<time>2005-04-09T16:38:25Z</time>
736</trkpt>
737<trkpt lat="50.8844" lon="-1.36924">
738<time>2005-04-09T16:38:45Z</time>
739</trkpt>
740<trkpt lat="50.8842" lon="-1.36885">
741<time>2005-04-09T16:39:08Z</time>
742</trkpt>
743<trkpt lat="50.8839" lon="-1.36842">
744<time>2005-04-09T16:39:33Z</time>
745</trkpt>
746<trkpt lat="50.8836" lon="-1.36808">
747<time>2005-04-09T16:39:56Z</time>
748</trkpt>
749<trkpt lat="50.8833" lon="-1.36773">
750<time>2005-04-09T16:40:21Z</time>
751</trkpt>
752<trkpt lat="50.8832" lon="-1.36761">
753<time>2005-04-09T16:40:39Z</time>
754</trkpt>
755<trkpt lat="50.883" lon="-1.36748">
756<time>2005-04-09T16:41:15Z</time>
757</trkpt>
758<trkpt lat="50.8827" lon="-1.36726">
759<time>2005-04-09T16:41:37Z</time>
760</trkpt>
761<trkpt lat="50.8826" lon="-1.36718">
762<time>2005-04-09T16:41:56Z</time>
763</trkpt>
764<trkpt lat="50.8825" lon="-1.36705">
765<time>2005-04-09T16:42:24Z</time>
766</trkpt>
767<trkpt lat="50.8825" lon="-1.36703">
768<time>2005-04-09T16:42:27Z</time>
769</trkpt>
770<trkpt lat="50.8825" lon="-1.3669">
771<time>2005-04-09T16:42:33Z</time>
772</trkpt>
773<trkpt lat="50.8824" lon="-1.36683">
774<time>2005-04-09T16:42:38Z</time>
775</trkpt>
776<trkpt lat="50.8821" lon="-1.36647">
777<time>2005-04-09T16:43:06Z</time>
778</trkpt>
779<trkpt lat="50.8818" lon="-1.36612">
780<time>2005-04-09T16:43:30Z</time>
781</trkpt>
782<trkpt lat="50.8816" lon="-1.36578">
783<time>2005-04-09T16:43:57Z</time>
784</trkpt>
785<trkpt lat="50.8811" lon="-1.36555">
786<time>2005-04-09T16:44:28Z</time>
787</trkpt>
788<trkpt lat="50.8807" lon="-1.36522">
789<time>2005-04-09T16:44:53Z</time>
790</trkpt>
791<trkpt lat="50.8804" lon="-1.36473">
792<time>2005-04-09T16:45:27Z</time>
793</trkpt>
794<trkpt lat="50.8802" lon="-1.3646">
795<time>2005-04-09T16:45:50Z</time>
796</trkpt>
797</trkseg>
798</trk>
799<trk>
800<number>0</number>
801<extensions>
802<property key="foot" value="yes"/>
803<property key="horse" value="yes"/>
804<property key="bike" value="yes"/>
805<property key="car" value="yes"/>
806<property key="class" value="minor"/>
807</extensions>
808<trkseg>
809<trkpt lat="50.8802" lon="-1.3646">
810<time>2005-04-09T16:45:50Z</time>
811</trkpt>
812<trkpt lat="50.8802" lon="-1.36432">
813<time>2005-04-09T16:46:10Z</time>
814</trkpt>
815<trkpt lat="50.8801" lon="-1.36383">
816<time>2005-04-09T16:46:30Z</time>
817</trkpt>
818<trkpt lat="50.8801" lon="-1.36361">
819<time>2005-04-09T16:46:49Z</time>
820</trkpt>
821<trkpt lat="50.8801" lon="-1.36321">
822<time>2005-04-09T16:50:25Z</time>
823</trkpt>
824<trkpt lat="50.8801" lon="-1.36282">
825<time>2005-04-09T16:50:45Z</time>
826</trkpt>
827<trkpt lat="50.8799" lon="-1.36226">
828<time>2005-04-09T16:51:08Z</time>
829</trkpt>
830<trkpt lat="50.8798" lon="-1.3617">
831<time>2005-04-09T16:51:36Z</time>
832</trkpt>
833<trkpt lat="50.8796" lon="-1.36108">
834<time>2005-04-09T16:52:06Z</time>
835</trkpt>
836<trkpt lat="50.8794" lon="-1.36055">
837<time>2005-04-09T16:52:32Z</time>
838</trkpt>
839<trkpt lat="50.8793" lon="-1.36012">
840<time>2005-04-09T16:52:50Z</time>
841</trkpt>
842<trkpt lat="50.8792" lon="-1.3596">
843<time>2005-04-09T16:53:13Z</time>
844</trkpt>
845<trkpt lat="50.879" lon="-1.35898">
846<time>2005-04-09T16:53:44Z</time>
847</trkpt>
848<trkpt lat="50.8789" lon="-1.35853">
849<time>2005-04-09T16:54:06Z</time>
850</trkpt>
851<trkpt lat="50.8786" lon="-1.35829">
852<time>2005-04-09T16:54:29Z</time>
853</trkpt>
854<trkpt lat="50.8786" lon="-1.35819">
855<time>2005-04-09T16:54:48Z</time>
856</trkpt>
857<trkpt lat="50.8784" lon="-1.35806">
858<time>2005-04-09T16:56:54Z</time>
859</trkpt>
860<trkpt lat="50.8781" lon="-1.35788">
861<time>2005-04-09T16:57:12Z</time>
862</trkpt>
863<trkpt lat="50.8779" lon="-1.35771">
864<time>2005-04-09T16:57:31Z</time>
865</trkpt>
866<trkpt lat="50.8776" lon="-1.35761">
867<time>2005-04-09T16:57:56Z</time>
868</trkpt>
869<trkpt lat="50.8773" lon="-1.3575">
870<time>2005-04-09T16:58:22Z</time>
871</trkpt>
872<trkpt lat="50.8771" lon="-1.35737">
873<time>2005-04-09T16:58:39Z</time>
874</trkpt>
875<trkpt lat="50.8768" lon="-1.35707">
876<time>2005-04-09T16:58:59Z</time>
877</trkpt>
878<trkpt lat="50.8768" lon="-1.35703">
879<time>2005-04-09T16:59:15Z</time>
880</trkpt>
881</trkseg>
882</trk>
883<trk>
884<number>0</number>
885<extensions>
886<property key="foot" value="yes"/>
887<property key="horse" value="yes"/>
888<property key="bike" value="yes"/>
889<property key="car" value="yes"/>
890<property key="class" value="minor"/>
891</extensions>
892<trkseg>
893<trkpt lat="50.8768" lon="-1.35703">
894<time>2005-04-09T16:59:15Z</time>
895</trkpt>
896<trkpt lat="50.8767" lon="-1.35679">
897<time>2005-04-09T16:59:44Z</time>
898</trkpt>
899<trkpt lat="50.8764" lon="-1.35655">
900<time>2005-04-09T17:00:06Z</time>
901</trkpt>
902<trkpt lat="50.8761" lon="-1.35623">
903<time>2005-04-09T17:00:29Z</time>
904</trkpt>
905<trkpt lat="50.8758" lon="-1.35595">
906<time>2005-04-09T17:00:50Z</time>
907</trkpt>
908<trkpt lat="50.8755" lon="-1.35563">
909<time>2005-04-09T17:01:14Z</time>
910</trkpt>
911<trkpt lat="50.8752" lon="-1.35527">
912<time>2005-04-09T17:01:37Z</time>
913</trkpt>
914<trkpt lat="50.875" lon="-1.35507">
915<time>2005-04-09T17:01:58Z</time>
916</trkpt>
917<trkpt lat="50.8748" lon="-1.35486">
918<time>2005-04-09T17:02:18Z</time>
919</trkpt>
920<trkpt lat="50.8745" lon="-1.35458">
921<time>2005-04-09T17:02:42Z</time>
922</trkpt>
923<trkpt lat="50.8745" lon="-1.35454">
924<time>2005-04-09T17:02:49Z</time>
925</trkpt>
926<trkpt lat="50.8742" lon="-1.35426">
927<time>2005-04-09T17:03:09Z</time>
928</trkpt>
929<trkpt lat="50.874" lon="-1.35394">
930<time>2005-04-09T17:03:30Z</time>
931</trkpt>
932<trkpt lat="50.8739" lon="-1.35389">
933<time>2005-04-09T17:03:34Z</time>
934</trkpt>
935<trkpt lat="50.8737" lon="-1.35366">
936<time>2005-04-09T17:03:55Z</time>
937</trkpt>
938<trkpt lat="50.8736" lon="-1.35353">
939<time>2005-04-09T17:04:24Z</time>
940</trkpt>
941<trkpt lat="50.8732" lon="-1.35334">
942<time>2005-04-09T17:04:47Z</time>
943</trkpt>
944<trkpt lat="50.8729" lon="-1.35319">
945<time>2005-04-09T17:05:12Z</time>
946</trkpt>
947<trkpt lat="50.8729" lon="-1.35321">
948<time>2005-04-09T17:05:21Z</time>
949</trkpt>
950<trkpt lat="50.8726" lon="-1.3531">
951<time>2005-04-09T17:05:45Z</time>
952</trkpt>
953<trkpt lat="50.8723" lon="-1.35299">
954<time>2005-04-09T17:06:06Z</time>
955</trkpt>
956<trkpt lat="50.872" lon="-1.35271">
957<time>2005-04-09T17:06:26Z</time>
958</trkpt>
959<trkpt lat="50.8718" lon="-1.35243">
960<time>2005-04-09T17:06:45Z</time>
961</trkpt>
962<trkpt lat="50.8715" lon="-1.35226">
963<time>2005-04-09T17:07:04Z</time>
964</trkpt>
965<trkpt lat="50.8712" lon="-1.35213">
966<time>2005-04-09T17:07:24Z</time>
967</trkpt>
968<trkpt lat="50.8709" lon="-1.35192">
969<time>2005-04-09T17:07:49Z</time>
970</trkpt>
971<trkpt lat="50.8706" lon="-1.35171">
972<time>2005-04-09T17:08:13Z</time>
973</trkpt>
974<trkpt lat="50.8703" lon="-1.35145">
975<time>2005-04-09T17:08:35Z</time>
976</trkpt>
977<trkpt lat="50.8702" lon="-1.35134">
978<time>2005-04-09T17:08:54Z</time>
979</trkpt>
980<trkpt lat="50.8702" lon="-1.35134">
981<time>2005-04-09T17:09:30Z</time>
982</trkpt>
983<trkpt lat="50.8701" lon="-1.35121">
984<time>2005-04-09T17:09:42Z</time>
985</trkpt>
986<trkpt lat="50.87" lon="-1.35125">
987<time>2005-04-09T17:09:49Z</time>
988</trkpt>
989<trkpt lat="50.8699" lon="-1.35115">
990<time>2005-04-09T17:10:06Z</time>
991</trkpt>
992<trkpt lat="50.8699" lon="-1.35117">
993<time>2005-04-09T17:10:08Z</time>
994</trkpt>
995<trkpt lat="50.8699" lon="-1.35119">
996<time>2005-04-09T17:10:23Z</time>
997</trkpt>
998</trkseg>
999</trk>
1000<trk>
1001<number>0</number>
1002<extensions>
1003</extensions>
1004<trkseg>
1005<trkpt lat="50.8699" lon="-1.35115">
1006<time>2005-04-09T17:12:05Z</time>
1007</trkpt>
1008</trkseg>
1009</trk>
1010<trk>
1011<number>0</number>
1012<extensions>
1013<property key="foot" value="yes"/>
1014<property key="horse" value="no"/>
1015<property key="bike" value="no"/>
1016<property key="car" value="no"/>
1017<property key="class" value="path"/>
1018</extensions>
1019<trkseg>
1020<trkpt lat="50.8699" lon="-1.3511">
1021<time>2005-04-09T17:12:08Z</time>
1022</trkpt>
1023<trkpt lat="50.8699" lon="-1.35106">
1024<time>2005-04-09T17:12:22Z</time>
1025</trkpt>
1026<trkpt lat="50.8699" lon="-1.35106">
1027<time>2005-04-09T17:13:18Z</time>
1028</trkpt>
1029<trkpt lat="50.8699" lon="-1.35113">
1030<time>2005-04-09T17:13:24Z</time>
1031</trkpt>
1032<trkpt lat="50.8697" lon="-1.351">
1033<time>2005-04-09T17:13:39Z</time>
1034</trkpt>
1035<trkpt lat="50.8694" lon="-1.3507">
1036<time>2005-04-09T17:14:00Z</time>
1037</trkpt>
1038<trkpt lat="50.8692" lon="-1.35037">
1039<time>2005-04-09T17:14:22Z</time>
1040</trkpt>
1041<trkpt lat="50.869" lon="-1.35005">
1042<time>2005-04-09T17:14:42Z</time>
1043</trkpt>
1044<trkpt lat="50.8687" lon="-1.3496">
1045<time>2005-04-09T17:15:06Z</time>
1046</trkpt>
1047<trkpt lat="50.8687" lon="-1.34956">
1048<time>2005-04-09T17:15:18Z</time>
1049</trkpt>
1050<trkpt lat="50.8685" lon="-1.34928">
1051<time>2005-04-09T17:15:35Z</time>
1052</trkpt>
1053<trkpt lat="50.8684" lon="-1.34898">
1054<time>2005-04-09T17:15:53Z</time>
1055</trkpt>
1056<trkpt lat="50.8682" lon="-1.34859">
1057<time>2005-04-09T17:16:16Z</time>
1058</trkpt>
1059<trkpt lat="50.8679" lon="-1.34819">
1060<time>2005-04-09T17:16:40Z</time>
1061</trkpt>
1062<trkpt lat="50.8677" lon="-1.34784">
1063<time>2005-04-09T17:17:00Z</time>
1064</trkpt>
1065<trkpt lat="50.8675" lon="-1.34752">
1066<time>2005-04-09T17:17:20Z</time>
1067</trkpt>
1068<trkpt lat="50.8675" lon="-1.34739">
1069<time>2005-04-09T17:17:36Z</time>
1070</trkpt>
1071<trkpt lat="50.8675" lon="-1.34724">
1072<time>2005-04-09T17:18:03Z</time>
1073</trkpt>
1074<trkpt lat="50.8675" lon="-1.34716">
1075<time>2005-04-09T17:18:09Z</time>
1076</trkpt>
1077<trkpt lat="50.8673" lon="-1.34681">
1078<time>2005-04-09T17:18:28Z</time>
1079</trkpt>
1080<trkpt lat="50.8672" lon="-1.34656">
1081<time>2005-04-09T17:18:46Z</time>
1082</trkpt>
1083<trkpt lat="50.867" lon="-1.34625">
1084<time>2005-04-09T17:19:06Z</time>
1085</trkpt>
1086<trkpt lat="50.8667" lon="-1.34587">
1087<time>2005-04-09T17:19:27Z</time>
1088</trkpt>
1089<trkpt lat="50.8666" lon="-1.3455">
1090<time>2005-04-09T17:19:46Z</time>
1091</trkpt>
1092<trkpt lat="50.8665" lon="-1.34527">
1093<time>2005-04-09T17:20:07Z</time>
1094</trkpt>
1095<trkpt lat="50.8664" lon="-1.34512">
1096<time>2005-04-09T17:20:45Z</time>
1097</trkpt>
1098<trkpt lat="50.8663" lon="-1.3451">
1099<time>2005-04-09T17:20:57Z</time>
1100</trkpt>
1101<trkpt lat="50.8662" lon="-1.34492">
1102<time>2005-04-09T17:21:24Z</time>
1103</trkpt>
1104<trkpt lat="50.866" lon="-1.34452">
1105<time>2005-04-09T17:21:46Z</time>
1106</trkpt>
1107<trkpt lat="50.8659" lon="-1.34424">
1108<time>2005-04-09T17:22:00Z</time>
1109</trkpt>
1110<trkpt lat="50.8659" lon="-1.34415">
1111<time>2005-04-09T17:22:05Z</time>
1112</trkpt>
1113<trkpt lat="50.8656" lon="-1.34377">
1114<time>2005-04-09T17:22:28Z</time>
1115</trkpt>
1116<trkpt lat="50.8654" lon="-1.34359">
1117<time>2005-04-09T17:22:49Z</time>
1118</trkpt>
1119<trkpt lat="50.8654" lon="-1.34351">
1120<time>2005-04-09T17:29:06Z</time>
1121</trkpt>
1122<trkpt lat="50.8654" lon="-1.34351">
1123<time>2005-04-09T17:29:28Z</time>
1124</trkpt>
1125<trkpt lat="50.8654" lon="-1.3434">
1126<time>2005-04-09T17:30:20Z</time>
1127</trkpt>
1128<trkpt lat="50.8652" lon="-1.34299">
1129<time>2005-04-09T17:30:42Z</time>
1130</trkpt>
1131<trkpt lat="50.8651" lon="-1.34293">
1132<time>2005-04-09T17:30:59Z</time>
1133</trkpt>
1134<trkpt lat="50.8651" lon="-1.34295">
1135<time>2005-04-09T17:31:43Z</time>
1136</trkpt>
1137<trkpt lat="50.865" lon="-1.34271">
1138<time>2005-04-09T17:32:05Z</time>
1139</trkpt>
1140<trkpt lat="50.8648" lon="-1.34241">
1141<time>2005-04-09T17:32:22Z</time>
1142</trkpt>
1143<trkpt lat="50.8647" lon="-1.34213">
1144<time>2005-04-09T17:32:37Z</time>
1145</trkpt>
1146<trkpt lat="50.8647" lon="-1.34205">
1147<time>2005-04-09T17:32:42Z</time>
1148</trkpt>
1149<trkpt lat="50.865" lon="-1.34168">
1150<time>2005-04-09T17:33:04Z</time>
1151</trkpt>
1152<trkpt lat="50.8651" lon="-1.34147">
1153<time>2005-04-09T17:33:17Z</time>
1154</trkpt>
1155<trkpt lat="50.8653" lon="-1.34113">
1156<time>2005-04-09T17:33:40Z</time>
1157</trkpt>
1158<trkpt lat="50.8654" lon="-1.34076">
1159<time>2005-04-09T17:34:01Z</time>
1160</trkpt>
1161<trkpt lat="50.8653" lon="-1.34053">
1162<time>2005-04-09T17:34:15Z</time>
1163</trkpt>
1164<trkpt lat="50.8651" lon="-1.34016">
1165<time>2005-04-09T17:34:36Z</time>
1166</trkpt>
1167<trkpt lat="50.8649" lon="-1.33982">
1168<time>2005-04-09T17:34:55Z</time>
1169</trkpt>
1170<trkpt lat="50.8648" lon="-1.33971">
1171<time>2005-04-09T17:35:12Z</time>
1172</trkpt>
1173<trkpt lat="50.8647" lon="-1.33958">
1174<time>2005-04-09T17:35:36Z</time>
1175</trkpt>
1176<trkpt lat="50.8645" lon="-1.33954">
1177<time>2005-04-09T17:35:52Z</time>
1178</trkpt>
1179<trkpt lat="50.8644" lon="-1.33956">
1180<time>2005-04-09T17:36:18Z</time>
1181</trkpt>
1182<trkpt lat="50.8642" lon="-1.33965">
1183<time>2005-04-09T17:36:50Z</time>
1184</trkpt>
1185<trkpt lat="50.8639" lon="-1.3399">
1186<time>2005-04-09T17:37:17Z</time>
1187</trkpt>
1188<trkpt lat="50.8637" lon="-1.33999">
1189<time>2005-04-09T17:37:38Z</time>
1190</trkpt>
1191<trkpt lat="50.8637" lon="-1.33997">
1192<time>2005-04-09T17:37:39Z</time>
1193</trkpt>
1194<trkpt lat="50.8636" lon="-1.33956">
1195<time>2005-04-09T17:38:03Z</time>
1196</trkpt>
1197<trkpt lat="50.8635" lon="-1.33922">
1198<time>2005-04-09T17:38:28Z</time>
1199</trkpt>
1200<trkpt lat="50.8634" lon="-1.33842">
1201<time>2005-04-09T17:39:02Z</time>
1202</trkpt>
1203<trkpt lat="50.8634" lon="-1.33832">
1204<time>2005-04-09T17:39:07Z</time>
1205</trkpt>
1206<trkpt lat="50.8633" lon="-1.33808">
1207<time>2005-04-09T17:39:18Z</time>
1208</trkpt>
1209<trkpt lat="50.8632" lon="-1.33797">
1210<time>2005-04-09T17:39:27Z</time>
1211</trkpt>
1212<trkpt lat="50.863" lon="-1.33786">
1213<time>2005-04-09T17:39:42Z</time>
1214</trkpt>
1215<trkpt lat="50.863" lon="-1.33793">
1216<time>2005-04-09T17:39:47Z</time>
1217</trkpt>
1218<trkpt lat="50.8628" lon="-1.33829">
1219<time>2005-04-09T17:40:10Z</time>
1220</trkpt>
1221<trkpt lat="50.8626" lon="-1.3387">
1222<time>2005-04-09T17:40:34Z</time>
1223</trkpt>
1224<trkpt lat="50.8626" lon="-1.33879">
1225<time>2005-04-09T17:40:51Z</time>
1226</trkpt>
1227<trkpt lat="50.8625" lon="-1.33874">
1228<time>2005-04-09T17:40:57Z</time>
1229</trkpt>
1230<trkpt lat="50.8624" lon="-1.33842">
1231<time>2005-04-09T17:41:21Z</time>
1232</trkpt>
1233<trkpt lat="50.8622" lon="-1.33814">
1234<time>2005-04-09T17:41:41Z</time>
1235</trkpt>
1236<trkpt lat="50.862" lon="-1.33795">
1237<time>2005-04-09T17:41:55Z</time>
1238</trkpt>
1239<trkpt lat="50.862" lon="-1.33789">
1240<time>2005-04-09T17:41:59Z</time>
1241</trkpt>
1242<trkpt lat="50.8618" lon="-1.33759">
1243<time>2005-04-09T17:42:20Z</time>
1244</trkpt>
1245<trkpt lat="50.8616" lon="-1.33722">
1246<time>2005-04-09T17:42:40Z</time>
1247</trkpt>
1248<trkpt lat="50.8616" lon="-1.33714">
1249<time>2005-04-09T17:42:45Z</time>
1250</trkpt>
1251<trkpt lat="50.8613" lon="-1.33711">
1252<time>2005-04-09T17:43:09Z</time>
1253</trkpt>
1254<trkpt lat="50.8613" lon="-1.33703">
1255<time>2005-04-09T17:43:14Z</time>
1256</trkpt>
1257<trkpt lat="50.8612" lon="-1.33699">
1258<time>2005-04-09T17:43:21Z</time>
1259</trkpt>
1260<trkpt lat="50.8612" lon="-1.33699">
1261<time>2005-04-09T17:43:25Z</time>
1262</trkpt>
1263<trkpt lat="50.8611" lon="-1.33696">
1264<time>2005-04-09T17:43:33Z</time>
1265</trkpt>
1266<trkpt lat="50.861" lon="-1.33692">
1267<time>2005-04-09T17:43:37Z</time>
1268</trkpt>
1269<trkpt lat="50.861" lon="-1.33671">
1270<time>2005-04-09T17:43:53Z</time>
1271</trkpt>
1272<trkpt lat="50.861" lon="-1.33668">
1273<time>2005-04-09T17:43:55Z</time>
1274</trkpt>
1275<trkpt lat="50.8607" lon="-1.33647">
1276<time>2005-04-09T17:44:20Z</time>
1277</trkpt>
1278<trkpt lat="50.8605" lon="-1.33615">
1279<time>2005-04-09T17:44:40Z</time>
1280</trkpt>
1281<trkpt lat="50.8603" lon="-1.33593">
1282<time>2005-04-09T17:44:59Z</time>
1283</trkpt>
1284<trkpt lat="50.8603" lon="-1.33591">
1285<time>2005-04-09T17:45:17Z</time>
1286</trkpt>
1287<trkpt lat="50.8601" lon="-1.33585">
1288<time>2005-04-09T17:46:04Z</time>
1289</trkpt>
1290<trkpt lat="50.8601" lon="-1.33583">
1291<time>2005-04-09T17:46:23Z</time>
1292</trkpt>
1293<trkpt lat="50.8599" lon="-1.33563">
1294<time>2005-04-09T17:46:41Z</time>
1295</trkpt>
1296<trkpt lat="50.8597" lon="-1.33538">
1297<time>2005-04-09T17:46:57Z</time>
1298</trkpt>
1299<trkpt lat="50.8596" lon="-1.33508">
1300<time>2005-04-09T17:47:15Z</time>
1301</trkpt>
1302<trkpt lat="50.8595" lon="-1.33503">
1303<time>2005-04-09T17:47:36Z</time>
1304</trkpt>
1305<trkpt lat="50.8595" lon="-1.33499">
1306<time>2005-04-09T17:47:56Z</time>
1307</trkpt>
1308<trkpt lat="50.8594" lon="-1.33497">
1309<time>2005-04-09T17:48:01Z</time>
1310</trkpt>
1311<trkpt lat="50.8593" lon="-1.33469">
1312<time>2005-04-09T17:48:23Z</time>
1313</trkpt>
1314<trkpt lat="50.8591" lon="-1.33447">
1315<time>2005-04-09T17:48:36Z</time>
1316</trkpt>
1317<trkpt lat="50.8591" lon="-1.33443">
1318<time>2005-04-09T17:48:59Z</time>
1319</trkpt>
1320<trkpt lat="50.859" lon="-1.33447">
1321<time>2005-04-09T17:49:01Z</time>
1322</trkpt>
1323<trkpt lat="50.8587" lon="-1.33385">
1324<time>2005-04-09T17:50:47Z</time>
1325</trkpt>
1326<trkpt lat="50.8587" lon="-1.33385">
1327<time>2005-04-09T17:50:50Z</time>
1328</trkpt>
1329<trkpt lat="50.8585" lon="-1.33362">
1330<time>2005-04-09T17:51:07Z</time>
1331</trkpt>
1332<trkpt lat="50.8583" lon="-1.33336">
1333<time>2005-04-09T17:51:25Z</time>
1334</trkpt>
1335<trkpt lat="50.8581" lon="-1.33308">
1336<time>2005-04-09T17:51:45Z</time>
1337</trkpt>
1338<trkpt lat="50.8578" lon="-1.33274">
1339<time>2005-04-09T17:52:07Z</time>
1340</trkpt>
1341<trkpt lat="50.8576" lon="-1.33237">
1342<time>2005-04-09T17:52:31Z</time>
1343</trkpt>
1344<trkpt lat="50.8574" lon="-1.33211">
1345<time>2005-04-09T17:52:50Z</time>
1346</trkpt>
1347<trkpt lat="50.8573" lon="-1.33188">
1348<time>2005-04-09T17:53:08Z</time>
1349</trkpt>
1350<trkpt lat="50.8571" lon="-1.33153">
1351<time>2005-04-09T17:53:28Z</time>
1352</trkpt>
1353<trkpt lat="50.8569" lon="-1.33115">
1354<time>2005-04-09T17:53:50Z</time>
1355</trkpt>
1356<trkpt lat="50.8567" lon="-1.33072">
1357<time>2005-04-09T17:54:14Z</time>
1358</trkpt>
1359<trkpt lat="50.8565" lon="-1.33029">
1360<time>2005-04-09T17:54:38Z</time>
1361</trkpt>
1362<trkpt lat="50.8564" lon="-1.32999">
1363<time>2005-04-09T17:54:57Z</time>
1364</trkpt>
1365<trkpt lat="50.8562" lon="-1.32963">
1366<time>2005-04-09T17:55:16Z</time>
1367</trkpt>
1368<trkpt lat="50.856" lon="-1.32924">
1369<time>2005-04-09T17:55:38Z</time>
1370</trkpt>
1371<trkpt lat="50.8558" lon="-1.32892">
1372<time>2005-04-09T17:55:58Z</time>
1373</trkpt>
1374<trkpt lat="50.8556" lon="-1.32855">
1375<time>2005-04-09T17:56:18Z</time>
1376</trkpt>
1377<trkpt lat="50.8555" lon="-1.32823">
1378<time>2005-04-09T17:56:38Z</time>
1379</trkpt>
1380<trkpt lat="50.8553" lon="-1.32787">
1381<time>2005-04-09T17:56:58Z</time>
1382</trkpt>
1383<trkpt lat="50.8551" lon="-1.32748">
1384<time>2005-04-09T17:57:19Z</time>
1385</trkpt>
1386<trkpt lat="50.855" lon="-1.32724">
1387<time>2005-04-09T17:57:34Z</time>
1388</trkpt>
1389<trkpt lat="50.8547" lon="-1.32688">
1390<time>2005-04-09T17:57:55Z</time>
1391</trkpt>
1392<trkpt lat="50.8546" lon="-1.3266">
1393<time>2005-04-09T17:58:13Z</time>
1394</trkpt>
1395<trkpt lat="50.8544" lon="-1.3263">
1396<time>2005-04-09T17:58:33Z</time>
1397</trkpt>
1398<trkpt lat="50.8543" lon="-1.32615">
1399<time>2005-04-09T17:58:47Z</time>
1400</trkpt>
1401<trkpt lat="50.8542" lon="-1.32591">
1402<time>2005-04-09T17:59:41Z</time>
1403</trkpt>
1404<trkpt lat="50.854" lon="-1.32561">
1405<time>2005-04-09T17:59:57Z</time>
1406</trkpt>
1407<trkpt lat="50.8538" lon="-1.32531">
1408<time>2005-04-09T18:00:15Z</time>
1409</trkpt>
1410<trkpt lat="50.8536" lon="-1.32493">
1411<time>2005-04-09T18:00:36Z</time>
1412</trkpt>
1413<trkpt lat="50.8534" lon="-1.32458">
1414<time>2005-04-09T18:00:55Z</time>
1415</trkpt>
1416<trkpt lat="50.8533" lon="-1.32441">
1417<time>2005-04-09T18:01:11Z</time>
1418</trkpt>
1419<trkpt lat="50.8532" lon="-1.32424">
1420<time>2005-04-09T18:01:29Z</time>
1421</trkpt>
1422<trkpt lat="50.8531" lon="-1.32402">
1423<time>2005-04-09T18:01:48Z</time>
1424</trkpt>
1425<trkpt lat="50.8529" lon="-1.32375">
1426<time>2005-04-09T18:02:05Z</time>
1427</trkpt>
1428<trkpt lat="50.8527" lon="-1.32334">
1429<time>2005-04-09T18:02:25Z</time>
1430</trkpt>
1431<trkpt lat="50.8525" lon="-1.32287">
1432<time>2005-04-09T18:02:50Z</time>
1433</trkpt>
1434<trkpt lat="50.8523" lon="-1.32254">
1435<time>2005-04-09T18:03:10Z</time>
1436</trkpt>
1437<trkpt lat="50.8521" lon="-1.32227">
1438<time>2005-04-09T18:03:28Z</time>
1439</trkpt>
1440<trkpt lat="50.852" lon="-1.32205">
1441<time>2005-04-09T18:03:47Z</time>
1442</trkpt>
1443<trkpt lat="50.852" lon="-1.32199">
1444<time>2005-04-09T18:04:03Z</time>
1445</trkpt>
1446<trkpt lat="50.852" lon="-1.32201">
1447<time>2005-04-09T18:06:23Z</time>
1448</trkpt>
1449<trkpt lat="50.852" lon="-1.32201">
1450<time>2005-04-09T18:06:59Z</time>
1451</trkpt>
1452<trkpt lat="50.852" lon="-1.32201">
1453<time>2005-04-09T18:07:56Z</time>
1454</trkpt>
1455<trkpt lat="50.852" lon="-1.32199">
1456<time>2005-04-09T18:15:19Z</time>
1457</trkpt>
1458<trkpt lat="50.852" lon="-1.32196">
1459<time>2005-04-09T18:15:21Z</time>
1460</trkpt>
1461<trkpt lat="50.8522" lon="-1.32164">
1462<time>2005-04-09T18:15:41Z</time>
1463</trkpt>
1464<trkpt lat="50.8523" lon="-1.32136">
1465<time>2005-04-09T18:16:00Z</time>
1466</trkpt>
1467<trkpt lat="50.8523" lon="-1.32126">
1468<time>2005-04-09T18:16:12Z</time>
1469</trkpt>
1470<trkpt lat="50.8521" lon="-1.32093">
1471<time>2005-04-09T18:16:34Z</time>
1472</trkpt>
1473<trkpt lat="50.8518" lon="-1.32074">
1474<time>2005-04-09T18:16:53Z</time>
1475</trkpt>
1476<trkpt lat="50.8518" lon="-1.32066">
1477<time>2005-04-09T18:17:11Z</time>
1478</trkpt>
1479<trkpt lat="50.8518" lon="-1.32063">
1480<time>2005-04-09T18:17:21Z</time>
1481</trkpt>
1482<trkpt lat="50.8516" lon="-1.32029">
1483<time>2005-04-09T18:17:43Z</time>
1484</trkpt>
1485<trkpt lat="50.8514" lon="-1.3198">
1486<time>2005-04-09T18:18:07Z</time>
1487</trkpt>
1488<trkpt lat="50.8513" lon="-1.31937">
1489<time>2005-04-09T18:18:29Z</time>
1490</trkpt>
1491<trkpt lat="50.8512" lon="-1.31896">
1492<time>2005-04-09T18:18:49Z</time>
1493</trkpt>
1494<trkpt lat="50.8511" lon="-1.31868">
1495<time>2005-04-09T18:19:17Z</time>
1496</trkpt>
1497<trkpt lat="50.8511" lon="-1.31834">
1498<time>2005-04-09T18:19:34Z</time>
1499</trkpt>
1500<trkpt lat="50.851" lon="-1.31799">
1501<time>2005-04-09T18:19:49Z</time>
1502</trkpt>
1503<trkpt lat="50.8509" lon="-1.31757">
1504<time>2005-04-09T18:20:09Z</time>
1505</trkpt>
1506<trkpt lat="50.8509" lon="-1.3172">
1507<time>2005-04-09T18:20:25Z</time>
1508</trkpt>
1509<trkpt lat="50.8508" lon="-1.31673">
1510<time>2005-04-09T18:20:46Z</time>
1511</trkpt>
1512<trkpt lat="50.8508" lon="-1.31641">
1513<time>2005-04-09T18:21:03Z</time>
1514</trkpt>
1515<trkpt lat="50.8507" lon="-1.31606">
1516<time>2005-04-09T18:21:21Z</time>
1517</trkpt>
1518<trkpt lat="50.8507" lon="-1.316">
1519<time>2005-04-09T18:21:25Z</time>
1520</trkpt>
1521<trkpt lat="50.8506" lon="-1.31574">
1522<time>2005-04-09T18:21:41Z</time>
1523</trkpt>
1524<trkpt lat="50.8505" lon="-1.31566">
1525<time>2005-04-09T18:21:50Z</time>
1526</trkpt>
1527<trkpt lat="50.8505" lon="-1.31566">
1528<time>2005-04-09T18:22:07Z</time>
1529</trkpt>
1530<trkpt lat="50.8505" lon="-1.31566">
1531<time>2005-04-09T18:22:16Z</time>
1532</trkpt>
1533<trkpt lat="50.8506" lon="-1.31546">
1534<time>2005-04-09T18:22:26Z</time>
1535</trkpt>
1536<trkpt lat="50.8505" lon="-1.31521">
1537<time>2005-04-09T18:22:43Z</time>
1538</trkpt>
1539<trkpt lat="50.8504" lon="-1.31514">
1540<time>2005-04-09T18:23:01Z</time>
1541</trkpt>
1542<trkpt lat="50.8504" lon="-1.31514">
1543<time>2005-04-09T18:23:13Z</time>
1544</trkpt>
1545<trkpt lat="50.8505" lon="-1.31488">
1546<time>2005-04-09T18:23:29Z</time>
1547</trkpt>
1548<trkpt lat="50.8505" lon="-1.31488">
1549<time>2005-04-09T18:23:32Z</time>
1550</trkpt>
1551<trkpt lat="50.8506" lon="-1.3148">
1552<time>2005-04-09T18:23:45Z</time>
1553</trkpt>
1554<trkpt lat="50.8506" lon="-1.3148">
1555<time>2005-04-09T18:24:05Z</time>
1556</trkpt>
1557<trkpt lat="50.8506" lon="-1.3148">
1558<time>2005-04-09T18:24:44Z</time>
1559</trkpt>
1560<trkpt lat="50.8507" lon="-1.31473">
1561<time>2005-04-09T18:25:24Z</time>
1562</trkpt>
1563<trkpt lat="50.8507" lon="-1.31471">
1564<time>2005-04-09T18:25:30Z</time>
1565</trkpt>
1566<trkpt lat="50.8508" lon="-1.31456">
1567<time>2005-04-09T18:25:48Z</time>
1568</trkpt>
1569<trkpt lat="50.8508" lon="-1.31452">
1570<time>2005-04-09T18:25:51Z</time>
1571</trkpt>
1572<trkpt lat="50.8509" lon="-1.3145">
1573<time>2005-04-09T18:25:59Z</time>
1574</trkpt>
1575<trkpt lat="50.851" lon="-1.31448">
1576<time>2005-04-09T18:26:06Z</time>
1577</trkpt>
1578<trkpt lat="50.8511" lon="-1.31441">
1579<time>2005-04-09T18:26:14Z</time>
1580</trkpt>
1581<trkpt lat="50.8511" lon="-1.31445">
1582<time>2005-04-09T18:26:20Z</time>
1583</trkpt>
1584<trkpt lat="50.8512" lon="-1.31452">
1585<time>2005-04-09T18:26:33Z</time>
1586</trkpt>
1587<trkpt lat="50.8514" lon="-1.31454">
1588<time>2005-04-09T18:26:49Z</time>
1589</trkpt>
1590<trkpt lat="50.8515" lon="-1.3145">
1591<time>2005-04-09T18:27:03Z</time>
1592</trkpt>
1593<trkpt lat="50.8517" lon="-1.31426">
1594<time>2005-04-09T18:27:21Z</time>
1595</trkpt>
1596<trkpt lat="50.8518" lon="-1.31411">
1597<time>2005-04-09T18:27:32Z</time>
1598</trkpt>
1599<trkpt lat="50.8519" lon="-1.31405">
1600<time>2005-04-09T18:27:36Z</time>
1601</trkpt>
1602<trkpt lat="50.8521" lon="-1.31388">
1603<time>2005-04-09T18:27:54Z</time>
1604</trkpt>
1605<trkpt lat="50.8523" lon="-1.31375">
1606<time>2005-04-09T18:28:10Z</time>
1607</trkpt>
1608<trkpt lat="50.8525" lon="-1.31388">
1609<time>2005-04-09T18:28:26Z</time>
1610</trkpt>
1611<trkpt lat="50.8526" lon="-1.31394">
1612<time>2005-04-09T18:28:32Z</time>
1613</trkpt>
1614<trkpt lat="50.8528" lon="-1.314">
1615<time>2005-04-09T18:28:50Z</time>
1616</trkpt>
1617<trkpt lat="50.853" lon="-1.31409">
1618<time>2005-04-09T18:29:11Z</time>
1619</trkpt>
1620<trkpt lat="50.853" lon="-1.31411">
1621<time>2005-04-09T18:32:56Z</time>
1622</trkpt>
1623<trkpt lat="50.853" lon="-1.31415">
1624<time>2005-04-09T18:33:01Z</time>
1625</trkpt>
1626<trkpt lat="50.8531" lon="-1.31469">
1627<time>2005-04-09T18:33:24Z</time>
1628</trkpt>
1629<trkpt lat="50.853" lon="-1.31516">
1630<time>2005-04-09T18:33:45Z</time>
1631</trkpt>
1632<trkpt lat="50.853" lon="-1.31542">
1633<time>2005-04-09T18:34:01Z</time>
1634</trkpt>
1635<trkpt lat="50.853" lon="-1.31546">
1636<time>2005-04-09T18:34:10Z</time>
1637</trkpt>
1638<trkpt lat="50.853" lon="-1.31548">
1639<time>2005-04-09T18:34:12Z</time>
1640</trkpt>
1641<trkpt lat="50.853" lon="-1.31566">
1642<time>2005-04-09T18:34:21Z</time>
1643</trkpt>
1644<trkpt lat="50.853" lon="-1.31572">
1645<time>2005-04-09T18:34:25Z</time>
1646</trkpt>
1647<trkpt lat="50.853" lon="-1.31585">
1648<time>2005-04-09T18:34:47Z</time>
1649</trkpt>
1650<trkpt lat="50.8529" lon="-1.31594">
1651<time>2005-04-09T18:34:52Z</time>
1652</trkpt>
1653<trkpt lat="50.8529" lon="-1.31604">
1654<time>2005-04-09T18:34:57Z</time>
1655</trkpt>
1656<trkpt lat="50.8528" lon="-1.31649">
1657<time>2005-04-09T18:35:18Z</time>
1658</trkpt>
1659<trkpt lat="50.8528" lon="-1.31673">
1660<time>2005-04-09T18:35:37Z</time>
1661</trkpt>
1662<trkpt lat="50.8531" lon="-1.31671">
1663<time>2005-04-09T18:35:58Z</time>
1664</trkpt>
1665<trkpt lat="50.8533" lon="-1.31651">
1666<time>2005-04-09T18:36:13Z</time>
1667</trkpt>
1668<trkpt lat="50.8535" lon="-1.31641">
1669<time>2005-04-09T18:36:31Z</time>
1670</trkpt>
1671<trkpt lat="50.8538" lon="-1.31654">
1672<time>2005-04-09T18:36:49Z</time>
1673</trkpt>
1674<trkpt lat="50.8538" lon="-1.31651">
1675<time>2005-04-09T18:36:53Z</time>
1676</trkpt>
1677<trkpt lat="50.854" lon="-1.31621">
1678<time>2005-04-09T18:37:13Z</time>
1679</trkpt>
1680<trkpt lat="50.854" lon="-1.31615">
1681<time>2005-04-09T18:37:17Z</time>
1682</trkpt>
1683<trkpt lat="50.854" lon="-1.31619">
1684<time>2005-04-09T18:37:21Z</time>
1685</trkpt>
1686<trkpt lat="50.8542" lon="-1.31626">
1687<time>2005-04-09T18:37:39Z</time>
1688</trkpt>
1689<trkpt lat="50.8541" lon="-1.31617">
1690<time>2005-04-09T18:37:47Z</time>
1691</trkpt>
1692<trkpt lat="50.8541" lon="-1.31578">
1693<time>2005-04-09T18:38:04Z</time>
1694</trkpt>
1695<trkpt lat="50.8542" lon="-1.31529">
1696<time>2005-04-09T18:38:23Z</time>
1697</trkpt>
1698<trkpt lat="50.8541" lon="-1.31512">
1699<time>2005-04-09T18:38:31Z</time>
1700</trkpt>
1701<trkpt lat="50.8542" lon="-1.31469">
1702<time>2005-04-09T18:38:53Z</time>
1703</trkpt>
1704<trkpt lat="50.8543" lon="-1.3146">
1705<time>2005-04-09T18:38:58Z</time>
1706</trkpt>
1707<trkpt lat="50.8544" lon="-1.31456">
1708<time>2005-04-09T18:39:14Z</time>
1709</trkpt>
1710<trkpt lat="50.8548" lon="-1.31448">
1711<time>2005-04-09T18:39:37Z</time>
1712</trkpt>
1713<trkpt lat="50.8549" lon="-1.31443">
1714<time>2005-04-09T18:39:49Z</time>
1715</trkpt>
1716<trkpt lat="50.8551" lon="-1.31439">
1717<time>2005-04-09T18:40:05Z</time>
1718</trkpt>
1719<trkpt lat="50.8551" lon="-1.31448">
1720<time>2005-04-09T18:40:11Z</time>
1721</trkpt>
1722<trkpt lat="50.8554" lon="-1.31473">
1723<time>2005-04-09T18:40:32Z</time>
1724</trkpt>
1725<trkpt lat="50.8556" lon="-1.31467">
1726<time>2005-04-09T18:40:52Z</time>
1727</trkpt>
1728<trkpt lat="50.8559" lon="-1.31454">
1729<time>2005-04-09T18:41:12Z</time>
1730</trkpt>
1731<trkpt lat="50.8562" lon="-1.31448">
1732<time>2005-04-09T18:41:38Z</time>
1733</trkpt>
1734<trkpt lat="50.8564" lon="-1.31428">
1735<time>2005-04-09T18:42:10Z</time>
1736</trkpt>
1737<trkpt lat="50.8566" lon="-1.31418">
1738<time>2005-04-09T18:43:44Z</time>
1739</trkpt>
1740<trkpt lat="50.8567" lon="-1.31413">
1741<time>2005-04-09T18:44:04Z</time>
1742</trkpt>
1743<trkpt lat="50.8569" lon="-1.31413">
1744<time>2005-04-09T18:44:26Z</time>
1745</trkpt>
1746<trkpt lat="50.857" lon="-1.31407">
1747<time>2005-04-09T18:44:43Z</time>
1748</trkpt>
1749</trkseg>
1750</trk>
1751<trk>
1752<number>0</number>
1753<extensions>
1754</extensions>
1755<trkseg>
1756<trkpt lat="50.857" lon="-1.31407">
1757<time>2005-04-09T18:44:47Z</time>
1758</trkpt>
1759<trkpt lat="50.8571" lon="-1.31357">
1760<time>2005-04-09T18:45:06Z</time>
1761</trkpt>
1762<trkpt lat="50.8573" lon="-1.31327">
1763<time>2005-04-09T18:45:22Z</time>
1764</trkpt>
1765<trkpt lat="50.8574" lon="-1.31321">
1766<time>2005-04-09T18:45:36Z</time>
1767</trkpt>
1768<trkpt lat="50.8578" lon="-1.31321">
1769<time>2005-04-09T18:46:00Z</time>
1770</trkpt>
1771<trkpt lat="50.858" lon="-1.31312">
1772<time>2005-04-09T18:46:17Z</time>
1773</trkpt>
1774<trkpt lat="50.8582" lon="-1.313">
1775<time>2005-04-09T18:46:36Z</time>
1776</trkpt>
1777<trkpt lat="50.8582" lon="-1.313">
1778<time>2005-04-09T18:46:58Z</time>
1779</trkpt>
1780<trkpt lat="50.8582" lon="-1.31302">
1781<time>2005-04-09T18:47:13Z</time>
1782</trkpt>
1783<trkpt lat="50.8583" lon="-1.31304">
1784<time>2005-04-09T18:47:17Z</time>
1785</trkpt>
1786<trkpt lat="50.8583" lon="-1.313">
1787<time>2005-04-09T18:47:32Z</time>
1788</trkpt>
1789<trkpt lat="50.8583" lon="-1.31304">
1790<time>2005-04-09T18:49:18Z</time>
1791</trkpt>
1792<trkpt lat="50.8584" lon="-1.31308">
1793<time>2005-04-09T18:50:32Z</time>
1794</trkpt>
1795<trkpt lat="50.8584" lon="-1.31345">
1796<time>2005-04-09T18:50:50Z</time>
1797</trkpt>
1798<trkpt lat="50.8584" lon="-1.31362">
1799<time>2005-04-09T18:51:01Z</time>
1800</trkpt>
1801<trkpt lat="50.8586" lon="-1.31392">
1802<time>2005-04-09T18:51:24Z</time>
1803</trkpt>
1804<trkpt lat="50.8588" lon="-1.31441">
1805<time>2005-04-09T18:51:48Z</time>
1806</trkpt>
1807<trkpt lat="50.8589" lon="-1.31473">
1808<time>2005-04-09T18:52:07Z</time>
1809</trkpt>
1810</trkseg>
1811</trk>
1812<trk>
1813<number>0</number>
1814<extensions>
1815<property key="foot" value="yes"/>
1816<property key="horse" value="yes"/>
1817<property key="bike" value="yes"/>
1818<property key="car" value="yes"/>
1819<property key="class" value="secondary"/>
1820</extensions>
1821<trkseg>
1822<trkpt lat="50.8589" lon="-1.31482">
1823<time>2005-04-09T18:52:21Z</time>
1824</trkpt>
1825<trkpt lat="50.859" lon="-1.3151">
1826<time>2005-04-09T18:52:41Z</time>
1827</trkpt>
1828<trkpt lat="50.859" lon="-1.31512">
1829<time>2005-04-09T18:52:45Z</time>
1830</trkpt>
1831<trkpt lat="50.8591" lon="-1.31516">
1832<time>2005-04-09T18:53:02Z</time>
1833</trkpt>
1834<trkpt lat="50.859" lon="-1.31525">
1835<time>2005-04-09T18:53:34Z</time>
1836</trkpt>
1837<trkpt lat="50.8589" lon="-1.31574">
1838<time>2005-04-09T18:53:55Z</time>
1839</trkpt>
1840<trkpt lat="50.8588" lon="-1.3163">
1841<time>2005-04-09T18:54:17Z</time>
1842</trkpt>
1843<trkpt lat="50.8589" lon="-1.31688">
1844<time>2005-04-09T18:54:39Z</time>
1845</trkpt>
1846<trkpt lat="50.859" lon="-1.31735">
1847<time>2005-04-09T18:54:58Z</time>
1848</trkpt>
1849<trkpt lat="50.859" lon="-1.31789">
1850<time>2005-04-09T18:55:21Z</time>
1851</trkpt>
1852<trkpt lat="50.859" lon="-1.31847">
1853<time>2005-04-09T18:55:44Z</time>
1854</trkpt>
1855<trkpt lat="50.8589" lon="-1.3192">
1856<time>2005-04-09T18:56:12Z</time>
1857</trkpt>
1858<trkpt lat="50.8588" lon="-1.31988">
1859<time>2005-04-09T18:56:39Z</time>
1860</trkpt>
1861<trkpt lat="50.8588" lon="-1.3204">
1862<time>2005-04-09T18:57:00Z</time>
1863</trkpt>
1864<trkpt lat="50.8589" lon="-1.32098">
1865<time>2005-04-09T18:57:23Z</time>
1866</trkpt>
1867<trkpt lat="50.859" lon="-1.32156">
1868<time>2005-04-09T18:57:46Z</time>
1869</trkpt>
1870<trkpt lat="50.859" lon="-1.32188">
1871<time>2005-04-09T18:58:01Z</time>
1872</trkpt>
1873<trkpt lat="50.8591" lon="-1.32239">
1874<time>2005-04-09T18:58:22Z</time>
1875</trkpt>
1876<trkpt lat="50.8592" lon="-1.32295">
1877<time>2005-04-09T18:58:46Z</time>
1878</trkpt>
1879<trkpt lat="50.8594" lon="-1.32366">
1880<time>2005-04-09T18:59:14Z</time>
1881</trkpt>
1882<trkpt lat="50.8594" lon="-1.32383">
1883<time>2005-04-09T18:59:26Z</time>
1884</trkpt>
1885<trkpt lat="50.8596" lon="-1.32435">
1886<time>2005-04-09T18:59:48Z</time>
1887</trkpt>
1888<trkpt lat="50.8598" lon="-1.32467">
1889<time>2005-04-09T19:00:05Z</time>
1890</trkpt>
1891<trkpt lat="50.8602" lon="-1.32514">
1892<time>2005-04-09T19:00:33Z</time>
1893</trkpt>
1894<trkpt lat="50.8605" lon="-1.32557">
1895<time>2005-04-09T19:00:56Z</time>
1896</trkpt>
1897<trkpt lat="50.8606" lon="-1.32574">
1898<time>2005-04-09T19:01:06Z</time>
1899</trkpt>
1900<trkpt lat="50.8609" lon="-1.32596">
1901<time>2005-04-09T19:01:23Z</time>
1902</trkpt>
1903<trkpt lat="50.8611" lon="-1.32641">
1904<time>2005-04-09T19:01:45Z</time>
1905</trkpt>
1906<trkpt lat="50.8613" lon="-1.32688">
1907<time>2005-04-09T19:02:08Z</time>
1908</trkpt>
1909<trkpt lat="50.8616" lon="-1.32744">
1910<time>2005-04-09T19:02:35Z</time>
1911</trkpt>
1912<trkpt lat="50.8618" lon="-1.32789">
1913<time>2005-04-09T19:02:55Z</time>
1914</trkpt>
1915<trkpt lat="50.8621" lon="-1.3284">
1916<time>2005-04-09T19:03:20Z</time>
1917</trkpt>
1918<trkpt lat="50.8623" lon="-1.32877">
1919<time>2005-04-09T19:03:42Z</time>
1920</trkpt>
1921<trkpt lat="50.8627" lon="-1.32887">
1922<time>2005-04-09T19:04:05Z</time>
1923</trkpt>
1924<trkpt lat="50.863" lon="-1.32877">
1925<time>2005-04-09T19:04:26Z</time>
1926</trkpt>
1927<trkpt lat="50.8633" lon="-1.32857">
1928<time>2005-04-09T19:04:44Z</time>
1929</trkpt>
1930<trkpt lat="50.8634" lon="-1.32853">
1931<time>2005-04-09T19:04:51Z</time>
1932</trkpt>
1933<trkpt lat="50.8635" lon="-1.32853">
1934<time>2005-04-09T19:04:53Z</time>
1935</trkpt>
1936<trkpt lat="50.8638" lon="-1.32825">
1937<time>2005-04-09T19:05:15Z</time>
1938</trkpt>
1939<trkpt lat="50.864" lon="-1.32827">
1940<time>2005-04-09T19:05:33Z</time>
1941</trkpt>
1942<trkpt lat="50.8644" lon="-1.32808">
1943<time>2005-04-09T19:05:57Z</time>
1944</trkpt>
1945<trkpt lat="50.8648" lon="-1.3278">
1946<time>2005-04-09T19:06:24Z</time>
1947</trkpt>
1948<trkpt lat="50.8652" lon="-1.32772">
1949<time>2005-04-09T19:06:46Z</time>
1950</trkpt>
1951<trkpt lat="50.8656" lon="-1.3275">
1952<time>2005-04-09T19:07:12Z</time>
1953</trkpt>
1954<trkpt lat="50.8661" lon="-1.32735">
1955<time>2005-04-09T19:07:38Z</time>
1956</trkpt>
1957<trkpt lat="50.8682" lon="-1.32767">
1958<time>2005-04-09T19:08:33Z</time>
1959</trkpt>
1960<trkpt lat="50.8693" lon="-1.3278">
1961<time>2005-04-09T19:09:04Z</time>
1962</trkpt>
1963<trkpt lat="50.8696" lon="-1.32782">
1964<time>2005-04-09T19:09:12Z</time>
1965</trkpt>
1966<trkpt lat="50.8704" lon="-1.32812">
1967<time>2005-04-09T19:09:33Z</time>
1968</trkpt>
1969<trkpt lat="50.8705" lon="-1.32812">
1970<time>2005-04-09T19:09:35Z</time>
1971</trkpt>
1972<trkpt lat="50.8707" lon="-1.32817">
1973<time>2005-04-09T19:09:52Z</time>
1974</trkpt>
1975<trkpt lat="50.8709" lon="-1.32819">
1976<time>2005-04-09T19:10:11Z</time>
1977</trkpt>
1978</trkseg>
1979</trk>
1980<trk>
1981<number>0</number>
1982<extensions>
1983</extensions>
1984<trkseg>
1985<trkpt lat="50.8709" lon="-1.32819">
1986<time>2005-04-09T19:10:17Z</time>
1987</trkpt>
1988</trkseg>
1989</trk>
1990</gpx>
Note: See TracBrowser for help on using the repository browser.